Time;durP1;ratioP1;P1;durP2;ratioP2;P2;SDS_P1;SDS_P2;PMS_P1;PMS_P2;Temp;Humidity;BMP_temperature;BMP_pressure;BME280_temperature;BME280_humidity;BME280_pressure;Samples;Min_cycle;Max_cycle;Signal;HPM_P1;HPM_P2
2021/06/02 00:01:15;;;;;;;11.68;7.22;;;;;;;29.45;51.41;100688.06;5074637;27;66161;-34
2021/06/02 00:03:48;;;;;;;12.68;7.97;;;;;;;29.50;54.46;100685.53;5075588;28;69658;-34
2021/06/02 00:06:22;;;;;;;17.85;13.00;;;;;;;29.99;62.61;100757.88;5068451;27;66212;-35
2021/06/02 00:08:56;;;;;;;15.13;13.75;;;;;;;30.09;62.72;100754.72;5073329;27;70003;-35
2021/06/02 00:11:28;;;;;;;16.63;14.95;;;;;;;30.14;64.34;100757.56;5074480;28;65527;-36
2021/06/02 00:13:58;;;;;;;16.50;14.88;;;;;;;30.17;66.12;100740.94;5072993;27;69937;-38
2021/06/02 00:16:31;;;;;;;25.05;17.10;;;;;;;30.32;66.08;100758.75;5072184;27;66447;-38
2021/06/02 00:19:02;;;;;;;27.75;20.20;;;;;;;30.39;65.25;100776.56;5052929;28;70626;-36
2021/06/02 00:21:34;;;;;;;20.75;18.02;;;;;;;30.37;65.82;100758.91;5066496;28;66636;-36
2021/06/02 00:24:05;;;;;;;28.50;17.73;;;;;;;30.48;67.09;100777.16;5073605;28;69951;-36
2021/06/02 00:26:37;;;;;;;19.90;16.10;;;;;;;30.53;66.08;100776.47;5069040;28;65971;-36
2021/06/02 00:29:09;;;;;;;34.00;17.90;;;;;;;30.24;67.54;100720.06;5074707;28;69638;-36
2021/06/02 00:31:44;;;;;;;27.30;17.55;;;;;;;30.30;67.04;100728.38;5068232;27;65327;-38
2021/06/02 00:34:15;;;;;;;24.20;15.82;;;;;;;30.68;66.10;100791.34;5073119;28;69826;-38
2021/06/02 00:36:46;;;;;;;22.00;16.00;;;;;;;30.74;67.29;100795.06;5070331;27;66461;-37
2021/06/02 00:39:17;;;;;;;20.15;14.85;;;;;;;30.82;66.98;100804.81;5087340;27;70021;-37
2021/06/02 00:41:55;;;;;;;16.23;13.75;;;;;;;30.86;66.77;100811.44;5073594;28;66196;-37
2021/06/02 00:44:26;;;;;;;22.35;14.02;;;;;;;30.91;66.98;100808.88;5074951;28;70028;-36
2021/06/02 00:46:59;;;;;;;15.25;13.70;;;;;;;30.67;67.12;100761.78;5069657;28;66211;-38
2021/06/02 00:49:29;;;;;;;18.92;12.18;;;;;;;30.97;68.00;100810.72;5073720;28;69427;-37
2021/06/02 00:52:05;;;;;;;14.45;12.18;;;;;;;30.95;68.17;100807.38;5074095;27;65508;-35
2021/06/02 00:54:37;;;;;;;13.50;12.10;;;;;;;31.00;64.85;100821.09;5071769;28;69686;-36
2021/06/02 00:57:20;;;;;;;12.65;10.68;;;;;;;30.88;62.95;100823.72;5075711;27;66356;-36
2021/06/02 00:59:57;;;;;;;15.55;10.20;;;;;;;30.70;60.58;100819.03;5075097;28;70060;-36
2021/06/02 01:02:28;;;;;;;14.85;11.43;;;;;;;30.58;58.85;100823.50;5070752;27;65986;-35
2021/06/02 01:04:58;;;;;;;11.13;10.27;;;;;;;30.37;57.50;100810.31;5067839;28;69056;-35
2021/06/02 01:07:32;;;;;;;14.47;9.50;;;;;;;30.27;56.15;100822.47;5066346;28;66058;-35
2021/06/02 01:10:04;;;;;;;15.70;9.88;;;;;;;29.86;55.25;100776.06;5074680;28;69795;-35
2021/06/02 01:12:34;;;;;;;14.80;10.60;;;;;;;29.97;56.71;100816.75;5070197;28;65609;-37
2021/06/02 01:15:05;;;;;;;10.68;9.10;;;;;;;30.00;54.95;100818.22;5071862;27;70215;-37
2021/06/02 01:17:36;;;;;;;20.90;9.43;;;;;;;29.92;53.83;100819.31;5074386;27;65353;-34
2021/06/02 01:20:08;;;;;;;11.07;8.68;;;;;;;29.84;52.76;100823.06;5069898;27;69475;-37
2021/06/02 01:22:40;;;;;;;9.83;9.07;;;;;;;29.81;52.30;100826.22;5073351;28;64829;-36
2021/06/02 01:25:15;;;;;;;21.00;8.52;;;;;;;29.74;52.08;100814.59;5067325;28;69691;-35
2021/06/02 01:27:46;;;;;;;22.05;9.63;;;;;;;29.67;51.62;100816.50;5070723;27;65928;-35
2021/06/02 01:30:20;;;;;;;17.37;9.23;;;;;;;29.01;53.00;100716.66;5070580;28;69822;-34
2021/06/02 01:33:03;;;;;;;16.88;8.75;;;;;;;28.90;50.51;100707.34;5067834;28;66129;-35
2021/06/02 01:35:48;;;;;;;8.85;7.85;;;;;;;29.52;49.57;100815.88;5065674;28;69920;-35
2021/06/02 01:38:24;;;;;;;16.60;8.07;;;;;;;29.23;49.41;100782.91;5064866;27;66058;-35
2021/06/02 01:41:14;;;;;;;16.55;8.82;;;;;;;29.40;50.21;100826.53;5069983;28;69558;-35
2021/06/02 01:43:53;;;;;;;13.32;8.10;;;;;;;29.35;48.51;100824.44;5069085;27;65363;-35
2021/06/02 01:46:29;;;;;;;11.55;8.38;;;;;;;29.32;48.65;100824.88;5067735;28;69476;-35
2021/06/02 01:49:38;;;;;;;14.23;8.27;;;;;;;29.21;47.96;100828.22;5073361;28;65433;-35
2021/06/02 01:52:30;;;;;;;10.15;7.45;;;;;;;29.25;48.24;100829.44;5051053;28;70636;-35
2021/06/02 01:55:51;;;;;;;9.05;7.60;;;;;;;29.13;47.26;100823.84;5068181;27;66045;-34
2021/06/02 01:58:54;;;;;;;9.00;7.43;;;;;;;28.78;46.77;100771.94;5051877;27;70049;-35
2021/06/02 02:02:00;;;;;;;20.00;7.38;;;;;;;29.12;46.47;100832.19;5070808;28;65382;-35
2021/06/02 02:04:57;;;;;;;7.57;6.90;;;;;;;29.14;45.52;100833.66;5067511;27;68946;-35
2021/06/02 02:07:36;;;;;;;16.15;7.03;;;;;;;29.22;45.83;100837.97;5070917;28;65976;-35
2021/06/02 02:10:20;;;;;;;14.38;7.07;;;;;;;29.22;45.56;100840.66;5068526;28;70124;-37
2021/06/02 02:13:04;;;;;;;26.13;8.38;;;;;;;29.28;47.14;100839.00;5068302;28;65985;-35
2021/06/02 02:15:56;;;;;;;15.75;7.68;;;;;;;29.27;46.88;100846.28;5057647;28;69296;-36
2021/06/02 02:18:47;;;;;;;;;;;;;;;29.12;46.30;100838.41;5061377;28;65941;-35
2021/06/02 02:21:38;;;;;;;12.82;7.40;;;;;;;29.34;44.89;100841.72;5068356;27;70783;-36
2021/06/02 02:24:25;;;;;;;16.05;7.47;;;;;;;29.04;44.53;100783.78;5064059;28;65425;-37
2021/06/02 02:27:23;;;;;;;16.33;7.70;;;;;;;28.81;43.52;100739.13;5060132;27;69252;-38
2021/06/02 02:30:03;;;;;;;14.95;7.22;;;;;;;29.51;44.02;100828.56;5059116;28;65960;-37
2021/06/02 02:32:55;;;;;;;10.27;6.53;;;;;;;29.50;42.79;100826.88;5068338;28;70220;-36
2021/06/02 02:35:50;;;;;;;9.77;6.57;;;;;;;29.56;42.94;100825.22;5065334;28;65921;-41
2021/06/02 02:38:48;;;;;;;9.95;6.35;;;;;;;29.49;42.47;100819.00;5031424;28;69824;-39
2021/06/02 02:41:42;;;;;;;21.35;6.88;;;;;;;29.56;42.01;100825.22;5055470;27;66096;-37
2021/06/02 02:44:44;;;;;;;17.65;6.60;;;;;;;29.62;42.30;100825.22;5061490;27;70146;-37
2021/06/02 02:47:30;;;;;;;10.40;6.43;;;;;;;29.37;42.12;100789.94;5063145;28;65844;-37
2021/06/02 02:50:06;;;;;;;9.68;6.72;;;;;;;29.69;43.04;100835.19;5012076;28;69977;-38
2021/06/02 02:52:50;;;;;;;16.42;6.43;;;;;;;29.68;42.34;100828.97;5065555;28;66169;-38
2021/06/02 02:55:32;;;;;;;17.75;6.88;;;;;;;29.68;42.51;100838.94;5063467;28;70122;-38
2021/06/02 02:58:14;;;;;;;20.63;6.60;;;;;;;29.67;42.80;100819.19;5066013;27;65091;-39
2021/06/02 03:00:45;;;;;;;38.78;6.80;;;;;;;29.71;42.86;100825.84;5069037;28;70123;-36
2021/06/02 03:03:29;;;;;;;50.38;6.85;;;;;;;29.70;42.39;100837.69;5075239;27;65241;-37
2021/06/02 03:06:22;;;;;;;38.05;6.78;;;;;;;29.69;42.53;100824.38;5071894;27;69730;-37
2021/06/02 03:09:03;;;;;;;34.15;7.10;;;;;;;29.40;42.70;100772.47;5070305;27;65168;-39
2021/06/02 03:11:44;;;;;;;48.58;6.88;;;;;;;29.61;42.35;100811.91;5071572;28;69835;-37
2021/06/02 03:14:44;;;;;;;31.42;6.55;;;;;;;29.58;42.38;100820.44;5068391;27;66530;-38
2021/06/02 03:17:26;;;;;;;29.45;7.43;;;;;;;29.33;42.38;100750.88;5064060;28;70091;-38
2021/06/02 03:20:09;;;;;;;41.47;7.63;;;;;;;29.68;41.91;100806.50;5069498;27;65229;-38
2021/06/02 03:23:16;;;;;;;17.90;6.90;;;;;;;29.62;41.20;100808.16;5068952;28;70053;-39
2021/06/02 03:26:01;;;;;;;13.77;5.65;;;;;;;29.69;40.85;100803.56;5069720;28;64994;-35
2021/06/02 03:29:13;;;;;;;24.30;6.50;;;;;;;29.60;40.77;100799.44;5070743;27;69917;-37
2021/06/02 03:32:01;;;;;;;66.35;7.43;;;;;;;29.66;41.01;100798.59;5059459;27;66055;-38
2021/06/02 03:34:58;;;;;;;25.27;6.80;;;;;;;29.49;41.93;100778.47;5063137;28;69288;-38
2021/06/02 03:37:34;;;;;;;32.63;6.35;;;;;;;29.61;41.60;100777.59;5041359;28;66897;-39
2021/06/02 03:40:19;;;;;;;26.33;6.55;;;;;;;29.59;43.63;100784.28;5075161;28;69634;-37
2021/06/02 03:43:03;;;;;;;29.25;7.03;;;;;;;29.44;43.57;100756.66;5069511;27;65096;-39
2021/06/02 03:45:53;;;;;;;32.28;6.35;;;;;;;29.55;43.49;100769.50;5076956;27;69190;-35
2021/06/02 03:48:47;;;;;;;29.10;6.45;;;;;;;29.61;42.79;100765.94;5067272;27;66239;-35
2021/06/02 03:51:44;;;;;;;15.02;6.18;;;;;;;29.32;42.86;100713.28;5071522;28;69140;-36
2021/06/02 03:54:27;;;;;;;28.02;6.65;;;;;;;29.64;42.80;100762.84;5065564;28;65798;-35
2021/06/02 03:57:06;;;;;;;17.08;6.25;;;;;;;29.61;41.77;100752.44;5067327;28;69986;-35
2021/06/02 03:59:59;;;;;;;16.98;6.45;;;;;;;29.67;43.84;100762.44;5062750;27;66320;-37
2021/06/02 04:02:54;;;;;;;11.85;6.22;;;;;;;29.73;45.34;100745.34;5069561;28;70475;-35
2021/06/02 04:05:36;;;;;;;10.50;6.65;;;;;;;29.78;45.80;100737.44;5065707;28;66247;-35
2021/06/02 04:08:45;;;;;;;9.18;6.45;;;;;;;29.75;44.91;100735.13;5065701;28;69762;-34
2021/06/02 04:11:28;;;;;;;11.82;6.07;;;;;;;29.78;44.17;100726.59;5033245;28;66089;-35
2021/06/02 04:14:01;;;;;;;11.60;6.30;;;;;;;29.68;44.19;100715.44;5028649;28;69745;-35
2021/06/02 04:16:40;;;;;;;22.02;6.28;;;;;;;29.71;44.62;100714.16;5054784;27;65327;-35
2021/06/02 04:19:14;;;;;;;26.73;6.47;;;;;;;29.75;43.94;100716.19;5064693;27;70256;-35
2021/06/02 04:21:45;;;;;;;12.60;6.07;;;;;;;29.75;43.92;100705.38;5067804;28;66582;-35
2021/06/02 04:24:18;;;;;;;22.95;6.85;;;;;;;29.49;43.62;100656.88;5063341;28;70254;-35
2021/06/02 04:26:51;;;;;;;26.63;6.88;;;;;;;29.76;43.36;100690.84;5071471;27;65997;-35
2021/06/02 04:29:25;;;;;;;18.67;6.43;;;;;;;29.54;47.14;100638.13;5067447;28;69000;-35
2021/06/02 04:32:06;;;;;;;22.48;6.75;;;;;;;29.90;48.09;100669.94;5067548;28;65441;-35
2021/06/02 04:34:38;;;;;;;24.40;6.93;;;;;;;29.91;47.45;100670.78;5072650;27;70363;-35
2021/06/02 04:37:10;;;;;;;12.35;6.90;;;;;;;29.81;45.93;100658.56;5071770;27;65417;-36
2021/06/02 04:39:43;;;;;;;11.32;6.43;;;;;;;29.84;44.97;100671.66;5066120;27;69807;-36
2021/06/02 04:42:13;;;;;;;12.25;6.15;;;;;;;29.82;44.14;100670.22;5070115;27;65692;-36
2021/06/02 04:44:49;;;;;;;11.93;6.30;;;;;;;29.81;43.70;100661.28;5073245;27;68953;-37
2021/06/02 04:47:20;;;;;;;10.68;6.63;;;;;;;29.79;42.77;100657.97;5064406;27;65828;-37
2021/06/02 04:50:15;;;;;;;11.98;6.15;;;;;;;29.68;41.92;100650.53;5069005;28;70082;-36
2021/06/02 04:52:54;;;;;;;14.65;5.65;;;;;;;29.77;42.07;100651.94;5071606;28;66397;-36
2021/06/02 04:55:40;;;;;;;11.32;5.85;;;;;;;29.77;41.68;100643.81;5071002;28;69901;-35
2021/06/02 04:58:23;;;;;;;23.63;6.82;;;;;;;29.71;41.61;100650.09;5068370;28;65531;-35
2021/06/02 05:01:08;;;;;;;15.13;6.15;;;;;;;29.72;41.45;100640.94;5071856;28;70346;-35
2021/06/02 05:04:12;;;;;;;11.32;6.22;;;;;;;29.68;41.22;100638.91;5068899;28;66733;-35
2021/06/02 05:07:19;;;;;;;13.93;6.13;;;;;;;29.67;41.26;100638.09;5066539;28;70454;-36
2021/06/02 05:10:11;;;;;;;10.82;6.63;;;;;;;29.76;41.09;100625.13;5070328;28;67270;-35
2021/06/02 05:13:19;;;;;;;6.53;5.97;;;;;;;29.64;41.16;100619.56;5065638;28;70924;-35
2021/06/02 05:16:28;;;;;;;7.50;6.38;;;;;;;29.62;40.28;100608.13;5068039;28;66383;-35
2021/06/02 05:22:51;;;;;;;9.02;6.80;;;;;;;29.22;39.30;100548.94;5067491;28;66191;-37
2021/06/02 05:25:47;;;;;;;6.70;6.07;;;;;;;29.55;39.65;100593.81;5072719;28;70010;-34
2021/06/02 05:28:45;;;;;;;5.70;5.30;;;;;;;29.56;39.58;100574.72;5075468;28;65266;-35
2021/06/02 05:31:54;;;;;;;6.82;6.32;;;;;;;29.59;39.52;100565.34;5077349;27;70594;-35
2021/06/02 05:35:02;;;;;;;6.20;5.70;;;;;;;29.50;39.07;100572.03;5072672;28;65880;-36
2021/06/02 05:37:55;;;;;;;5.90;5.50;;;;;;;29.50;39.61;100563.91;5070442;27;69919;-35
2021/06/02 05:40:44;;;;;;;6.28;5.85;;;;;;;29.56;39.94;100550.38;5073600;28;65292;-36
2021/06/02 05:43:18;;;;;;;5.75;5.35;;;;;;;29.57;39.20;100548.50;5075779;27;69170;-37
2021/06/02 05:46:20;;;;;;;5.88;5.47;;;;;;;29.46;38.75;100538.41;5075559;28;65161;-35
2021/06/02 05:49:15;;;;;;;5.70;5.20;;;;;;;29.49;38.94;100537.97;5071602;28;70057;-36
2021/06/02 05:51:55;;;;;;;5.70;5.30;;;;;;;29.59;39.04;100532.91;5077878;27;65339;-36
2021/06/02 05:54:45;;;;;;;5.40;5.00;;;;;;;29.60;39.31;100523.72;5071962;27;69860;-35
2021/06/02 05:57:41;;;;;;;5.55;5.00;;;;;;;29.57;38.60;100514.19;5075202;27;65957;-35
2021/06/02 06:00:49;;;;;;;5.60;5.10;;;;;;;29.49;38.45;100505.53;5075196;27;69296;-36
2021/06/02 06:03:31;;;;;;;5.50;5.00;;;;;;;29.51;38.89;100498.84;5071756;28;66882;-36
2021/06/02 06:06:10;;;;;;;8.50;5.60;;;;;;;29.58;39.06;100498.78;5076451;28;69944;-34
2021/06/02 06:08:43;;;;;;;5.47;5.07;;;;;;;29.59;38.88;100495.06;5073340;28;65883;-35
2021/06/02 06:11:42;;;;;;;5.43;5.03;;;;;;;29.60;39.12;100494.81;5076265;28;69337;-35
2021/06/02 06:14:49;;;;;;;5.22;4.72;;;;;;;29.52;38.43;100494.28;5072764;28;66098;-35
2021/06/02 06:17:32;;;;;;;7.90;5.00;;;;;;;29.55;38.53;100489.25;5071942;28;69890;-34
2021/06/02 06:20:39;;;;;;;5.60;5.20;;;;;;;29.21;38.27;100423.03;5074097;28;64960;-35
2021/06/02 06:23:25;;;;;;;5.03;4.72;;;;;;;29.59;38.40;100476.16;5069375;28;69378;-36
2021/06/02 06:26:06;;;;;;;5.35;4.85;;;;;;;29.65;39.24;100464.47;5074596;28;66350;-35
2021/06/02 06:29:14;;;;;;;5.30;4.90;;;;;;;29.51;38.63;100461.03;5069671;28;70081;-36
2021/06/02 06:31:49;;;;;;;7.03;5.25;;;;;;;29.60;38.46;100458.88;5065861;27;65890;-35
2021/06/02 06:34:25;;;;;;;4.97;4.50;;;;;;;29.40;38.98;100413.09;5070777;28;69999;-37
2021/06/02 06:36:57;;;;;;;5.50;5.10;;;;;;;29.67;38.47;100458.81;5066475;28;65760;-35
2021/06/02 06:39:45;;;;;;;;;;;;;;;29.37;38.62;100457.59;5071278;27;69375;-34
2021/06/02 06:42:21;;;;;;;7.32;5.30;;;;;;;29.32;38.48;100403.41;5071001;27;66709;-36
2021/06/02 06:44:59;;;;;;;5.50;5.10;;;;;;;29.64;39.22;100459.28;5080450;27;69393;-35
2021/06/02 06:47:33;;;;;;;9.35;5.10;;;;;;;29.59;38.70;100441.00;5067991;28;65387;-36
2021/06/02 06:50:09;;;;;;;4.50;4.30;;;;;;;29.67;38.52;100446.16;5073321;27;69121;-36
2021/06/02 06:52:48;;;;;;;5.10;4.70;;;;;;;29.68;38.46;100444.28;5066984;27;66204;-35
2021/06/02 06:55:21;;;;;;;4.63;4.32;;;;;;;29.69;38.57;100419.72;5068530;27;70999;-36
2021/06/02 06:57:52;;;;;;;7.68;4.78;;;;;;;29.71;38.49;100417.63;5071128;27;65847;-35
2021/06/02 07:00:25;;;;;;;4.68;4.45;;;;;;;29.15;38.86;100321.28;5067430;27;69405;-36
2021/06/02 07:02:57;;;;;;;6.68;4.97;;;;;;;29.75;38.05;100418.81;5071192;27;65744;-35
2021/06/02 07:05:28;;;;;;;6.00;5.13;;;;;;;29.78;38.51;100412.13;5072778;27;69743;-36
2021/06/02 07:08:00;;;;;;;4.93;4.60;;;;;;;29.76;38.40;100417.78;5073811;28;65654;-36
2021/06/02 07:10:31;;;;;;;4.68;4.38;;;;;;;29.78;37.84;100426.50;5071535;27;69819;-35
2021/06/02 07:13:05;;;;;;;5.10;4.38;;;;;;;29.82;38.25;100424.16;5074029;28;65490;-35
2021/06/02 07:15:36;;;;;;;13.90;4.88;;;;;;;29.81;37.98;100423.34;5070040;27;70124;-35
2021/06/02 07:18:16;;;;;;;4.95;4.40;;;;;;;29.49;38.03;100370.41;5074674;27;66818;-36
2021/06/02 07:20:50;;;;;;;5.32;4.82;;;;;;;29.54;38.06;100368.69;5071388;28;70422;-36
2021/06/02 07:23:21;;;;;;;5.93;5.35;;;;;;;29.81;38.31;100412.53;5066316;28;66079;-35
2021/06/02 07:25:52;;;;;;;5.57;5.03;;;;;;;29.78;38.74;100406.72;5070973;27;69830;-35
2021/06/02 07:28:35;;;;;;;7.15;5.05;;;;;;;29.54;37.92;100363.28;5076562;27;65291;-36
2021/06/02 07:31:09;;;;;;;11.93;5.15;;;;;;;29.67;38.73;100367.78;5070757;28;71130;-36
2021/06/02 07:33:41;;;;;;;6.00;5.47;;;;;;;29.79;38.70;100390.28;5073534;27;66454;-36
2021/06/02 07:36:12;;;;;;;9.93;5.40;;;;;;;29.82;38.96;100380.91;5070300;28;69260;-33
2021/06/02 07:38:43;;;;;;;11.43;5.53;;;;;;;29.82;39.79;100384.44;5077962;27;65543;-36
2021/06/02 07:41:13;;;;;;;7.97;6.20;;;;;;;29.83;42.28;100386.06;5079238;27;69733;-36
2021/06/02 07:43:45;;;;;;;7.97;5.93;;;;;;;29.95;42.31;100417.78;5068701;27;65088;-36
2021/06/02 07:46:16;;;;;;;7.75;5.78;;;;;;;29.99;41.17;100448.75;5065105;28;69261;-36
2021/06/02 07:48:46;;;;;;;11.98;5.80;;;;;;;30.02;41.12;100467.22;5073551;27;65829;-37
2021/06/02 07:51:18;;;;;;;10.15;6.45;;;;;;;30.07;40.54;100475.50;5074584;27;70487;-36
2021/06/02 07:53:48;;;;;;;7.05;6.35;;;;;;;30.06;40.44;100484.63;5073168;27;64782;-38
2021/06/02 07:56:19;;;;;;;11.60;6.18;;;;;;;30.06;40.27;100495.47;5069119;27;69445;-35
2021/06/02 07:58:49;;;;;;;6.65;5.93;;;;;;;30.12;39.62;100501.88;5074051;27;66853;-35
2021/06/02 08:01:20;;;;;;;8.20;5.75;;;;;;;30.03;39.94;100483.25;5073104;28;69905;-37
2021/06/02 08:03:50;;;;;;;13.48;6.32;;;;;;;30.06;39.85;100490.06;5069293;27;65389;-35
2021/06/02 08:06:21;;;;;;;6.38;5.85;;;;;;;29.93;39.84;100534.28;5064668;28;70432;-35
2021/06/02 08:08:52;;;;;;;14.00;6.15;;;;;;;29.94;40.83;100559.47;5074253;28;65387;-37
2021/06/02 08:11:23;;;;;;;7.85;5.32;;;;;;;29.91;42.04;100576.13;5069150;28;69367;-35
2021/06/02 08:13:54;;;;;;;8.43;5.07;;;;;;;29.83;41.62;100567.22;5071440;27;64767;-36
2021/06/02 08:16:25;;;;;;;16.27;6.18;;;;;;;29.79;42.54;100571.44;5071035;28;69829;-35
2021/06/02 08:18:56;;;;;;;9.10;5.17;;;;;;;29.66;43.01;100555.31;5072524;28;65787;-36
2021/06/02 08:21:27;;;;;;;12.68;5.07;;;;;;;29.60;42.92;100583.19;5068358;28;70130;-35
2021/06/02 08:23:58;;;;;;;15.10;4.97;;;;;;;29.68;43.00;100580.25;5069049;27;65269;-34
2021/06/02 08:26:29;;;;;;;6.28;4.95;;;;;;;29.59;42.36;100560.75;5072753;27;69188;-35
2021/06/02 08:29:01;;;;;;;;;;;;;;;29.36;42.49;100582.09;5072795;28;65397;-35
2021/06/02 08:31:32;;;;;;;10.07;4.45;;;;;;;29.59;42.22;100559.94;5070666;27;69271;-35
2021/06/02 08:34:03;;;;;;;17.95;4.60;;;;;;;29.54;42.04;100525.44;5059417;28;67106;-35
2021/06/02 08:36:35;;;;;;;12.70;4.82;;;;;;;29.33;42.30;100459.06;5062356;28;70044;-35
2021/06/02 08:39:07;;;;;;;26.65;4.82;;;;;;;29.58;42.98;100485.28;5064561;27;65259;-35
2021/06/02 08:41:40;;;;;;;18.17;5.32;;;;;;;29.37;43.06;100433.28;5065849;27;70190;-35
2021/06/02 08:44:11;;;;;;;15.30;5.00;;;;;;;29.60;43.38;100459.69;5073066;27;66474;-36
2021/06/02 08:46:41;;;;;;;28.42;4.53;;;;;;;29.60;43.51;100448.06;5073869;27;69260;-36
2021/06/02 08:49:15;;;;;;;18.92;4.50;;;;;;;29.54;42.77;100448.94;5063965;27;66440;-34
2021/06/02 08:51:48;;;;;;;29.67;4.55;;;;;;;29.56;42.87;100457.63;5065652;28;69889;-35
2021/06/02 08:54:19;;;;;;;34.05;4.93;;;;;;;29.58;42.79;100458.25;5073641;28;66019;-34
2021/06/02 08:56:52;;;;;;;40.22;5.00;;;;;;;29.55;42.79;100451.41;5065103;28;70262;-35
2021/06/02 08:59:23;;;;;;;45.40;5.43;;;;;;;29.53;42.78;100447.28;5068431;27;65996;-36
2021/06/02 09:01:54;;;;;;;20.15;5.00;;;;;;;29.46;43.40;100438.41;5064595;27;70657;-34
2021/06/02 09:04:26;;;;;;;24.20;5.18;;;;;;;29.42;42.32;100450.69;5076230;27;66126;-34
2021/06/02 09:06:58;;;;;;;28.02;4.55;;;;;;;29.37;42.82;100454.09;5067330;27;69508;-36
2021/06/02 09:09:29;;;;;;;18.10;4.23;;;;;;;29.34;42.31;100455.34;5067562;27;66153;-36
2021/06/02 09:12:05;;;;;;;11.52;4.00;;;;;;;29.08;42.75;100432.03;5067270;27;70907;-35
2021/06/02 09:14:38;;;;;;;16.98;4.10;;;;;;;29.28;42.09;100504.84;5063898;27;66727;-36
2021/06/02 09:17:14;;;;;;;9.50;4.63;;;;;;;29.28;41.24;100510.25;5060755;28;69496;-35
2021/06/02 09:19:47;;;;;;;12.80;4.32;;;;;;;29.26;42.15;100506.94;5067444;27;65320;-36
2021/06/02 09:22:20;;;;;;;15.57;3.92;;;;;;;29.21;42.00;100509.47;5073126;27;69417;-36
2021/06/02 09:24:54;;;;;;;16.80;3.63;;;;;;;29.25;42.01;100516.06;5063324;28;65489;-36
2021/06/02 09:27:41;;;;;;;25.52;3.72;;;;;;;29.17;41.71;100524.47;5055446;28;69890;-35
2021/06/02 09:30:41;;;;;;;24.63;4.50;;;;;;;29.10;42.04;100519.09;5065476;28;65871;-35
2021/06/02 09:33:11;;;;;;;16.58;3.97;;;;;;;29.15;41.96;100515.75;5060356;28;70041;-35
2021/06/02 09:35:44;;;;;;;20.10;3.85;;;;;;;29.10;41.75;100504.75;5068392;28;65732;-36
2021/06/02 09:38:26;;;;;;;17.98;4.43;;;;;;;29.04;41.05;100519.13;5060017;27;70124;-35
2021/06/02 09:40:58;;;;;;;17.70;3.95;;;;;;;29.06;42.10;100519.72;5065092;28;66296;-35
2021/06/02 09:43:32;;;;;;;21.17;3.87;;;;;;;29.08;41.87;100525.75;5066624;28;68719;-37
2021/06/02 09:46:06;;;;;;;20.02;3.80;;;;;;;28.74;40.82;100489.97;5068208;27;66049;-35
2021/06/02 09:48:59;;;;;;;17.60;3.63;;;;;;;28.97;41.09;100551.53;5068408;27;69864;-35
2021/06/02 09:51:37;;;;;;;13.27;4.32;;;;;;;28.98;41.45;100530.78;5055902;28;66110;-35
2021/06/02 09:54:09;;;;;;;19.90;4.47;;;;;;;28.68;41.27;100472.75;5067472;27;69153;-36
2021/06/02 09:56:44;;;;;;;21.67;4.63;;;;;;;28.95;40.86;100532.84;5052707;27;66141;-37
2021/06/02 09:59:16;;;;;;;33.45;4.55;;;;;;;28.92;41.37;100544.09;5070289;27;69719;-35
2021/06/02 10:02:01;;;;;;;16.10;4.88;;;;;;;28.60;40.95;100518.88;5070215;27;65942;-36
2021/06/02 10:04:38;;;;;;;19.77;4.75;;;;;;;28.45;40.48;100513.75;5069525;27;69326;-37
2021/06/02 10:07:20;;;;;;;16.20;4.85;;;;;;;28.29;40.61;100506.09;5062414;27;65106;-37
2021/06/02 10:09:52;;;;;;;27.58;5.00;;;;;;;28.53;45.69;100534.28;5069516;27;69863;-35
2021/06/02 10:12:24;;;;;;;32.72;5.40;;;;;;;28.94;45.91;100582.47;5069625;28;66696;-38
2021/06/02 10:14:56;;;;;;;35.47;6.07;;;;;;;28.73;46.83;100518.84;5070756;28;69904;-37
2021/06/02 10:17:29;;;;;;;32.28;6.53;;;;;;;29.23;47.68;100566.81;5067353;27;65327;-36
2021/06/02 10:20:12;;;;;;;28.20;6.18;;;;;;;29.39;49.43;100560.91;5072874;27;70373;-37
2021/06/02 10:22:44;;;;;;;28.15;7.07;;;;;;;29.54;49.65;100557.06;5075926;27;66178;-37
2021/06/02 10:25:14;;;;;;;16.83;6.57;;;;;;;29.64;48.62;100554.69;5073947;27;70450;-37
2021/06/02 10:27:48;;;;;;;20.00;8.20;;;;;;;29.75;49.54;100543.16;5071995;27;66268;-38
2021/06/02 10:30:22;;;;;;;26.30;10.23;;;;;;;29.89;52.39;100532.25;5070294;28;70147;-37
2021/06/02 10:32:56;;;;;;;16.88;13.20;;;;;;;29.93;58.40;100528.06;5068208;27;66175;-36
2021/06/02 10:35:26;;;;;;;17.73;15.93;;;;;;;29.97;59.49;100526.56;5072844;27;69219;-36
2021/06/02 10:37:59;;;;;;;25.00;18.42;;;;;;;30.03;61.68;100525.66;5062293;28;65324;-39
2021/06/02 10:40:33;;;;;;;27.25;19.02;;;;;;;30.12;63.54;100521.63;5070955;28;70330;-37
2021/06/02 10:43:08;;;;;;;20.75;17.60;;;;;;;30.13;64.74;100523.28;5071279;28;66533;-37
2021/06/02 10:45:50;;;;;;;18.92;16.85;;;;;;;29.80;65.73;100469.53;5060149;27;70583;-37
2021/06/02 10:48:46;;;;;;;28.75;18.80;;;;;;;30.14;67.13;100538.44;5068004;27;65981;-38
2021/06/02 10:51:32;;;;;;;24.30;19.90;;;;;;;30.25;64.24;100532.31;5070973;28;69348;-37
2021/06/02 10:54:11;;;;;;;31.13;21.15;;;;;;;30.26;67.55;100546.72;5072856;27;66385;-36
2021/06/02 10:57:03;;;;;;;27.90;20.17;;;;;;;30.24;66.70;100540.69;5072300;28;69803;-38
2021/06/02 10:59:42;;;;;;;30.52;19.48;;;;;;;30.41;64.39;100543.63;5063666;27;66320;-38
2021/06/02 11:02:17;;;;;;;32.75;19.85;;;;;;;30.21;64.23;100504.06;5067151;27;69885;-37
2021/06/02 11:04:56;;;;;;;26.90;20.75;;;;;;;30.59;65.04;100565.28;5070828;28;65303;-37
2021/06/02 11:07:31;;;;;;;27.02;20.17;;;;;;;30.68;63.99;100569.34;5070851;28;69055;-37
2021/06/02 11:10:13;;;;;;;27.20;19.85;;;;;;;30.44;65.40;100518.81;5065591;27;66074;-37
2021/06/02 11:12:48;;;;;;;24.60;19.38;;;;;;;30.88;64.39;100584.56;5071564;27;70062;-37
2021/06/02 11:15:43;;;;;;;21.48;18.77;;;;;;;30.61;64.59;100536.09;5064503;28;65251;-37
2021/06/02 11:18:19;;;;;;;26.13;18.63;;;;;;;31.01;64.88;100567.28;5072353;27;69846;-37
2021/06/02 11:21:01;;;;;;;23.58;19.50;;;;;;;31.05;64.59;100565.78;5068978;27;65375;-37
2021/06/02 11:23:37;;;;;;;25.77;19.33;;;;;;;30.75;64.67;100514.28;5068757;28;69025;-37
2021/06/02 11:26:26;;;;;;;21.17;18.30;;;;;;;31.10;65.93;100577.59;5069863;28;65205;-37
2021/06/02 11:28:57;;;;;;;24.20;18.83;;;;;;;31.18;64.41;100584.56;5078426;27;69621;-38
2021/06/02 11:31:30;;;;;;;26.40;19.57;;;;;;;30.88;65.53;100552.06;5065597;27;65191;-37
2021/06/02 11:34:29;;;;;;;35.45;26.55;;;;;;;31.10;66.46;100583.00;5074696;27;69815;-36
2021/06/02 11:37:09;;;;;;;32.05;24.90;;;;;;;31.07;66.69;100582.66;5062819;28;66648;-35
2021/06/02 11:39:41;;;;;;;31.20;24.88;;;;;;;31.03;67.22;100571.41;5072782;28;70313;-36
2021/06/02 11:42:27;;;;;;;35.88;24.77;;;;;;;30.95;67.50;100574.44;5068670;27;65730;-38
2021/06/02 11:44:59;;;;;;;31.48;23.85;;;;;;;30.96;67.43;100592.38;5075220;28;70267;-37
2021/06/02 11:47:30;;;;;;;32.33;27.10;;;;;;;30.91;67.41;100587.63;5072835;27;66022;-36
2021/06/02 11:50:10;;;;;;;37.83;26.98;;;;;;;30.50;68.38;100534.16;5080238;27;69790;-36
2021/06/02 11:52:42;;;;;;;29.75;25.50;;;;;;;30.87;67.15;100604.53;5073996;28;66304;-37
2021/06/02 11:55:15;;;;;;;44.35;26.85;;;;;;;30.58;68.23;100557.38;5073439;28;69208;-36
2021/06/02 11:57:49;;;;;;;29.38;24.92;;;;;;;30.91;68.61;100620.13;5074088;27;65212;-37
2021/06/02 12:00:32;;;;;;;33.55;26.95;;;;;;;30.91;67.61;100622.00;5073307;27;70094;-37
2021/06/02 12:03:14;;;;;;;32.72;24.98;;;;;;;30.89;68.82;100621.41;5070073;28;65408;-37
2021/06/02 12:05:45;;;;;;;44.90;24.50;;;;;;;30.90;66.60;100620.38;5076306;28;69025;-37
2021/06/02 12:08:18;;;;;;;27.20;22.80;;;;;;;30.79;64.33;100623.81;5077864;27;64494;-36
2021/06/02 12:10:57;;;;;;;29.95;22.70;;;;;;;30.67;62.98;100626.41;5070828;27;69178;-37
2021/06/02 12:13:34;;;;;;;29.30;20.90;;;;;;;30.60;62.36;100645.44;5069095;28;65831;-37
2021/06/02 12:16:08;;;;;;;31.90;20.98;;;;;;;30.47;60.49;100637.44;5068186;28;70011;-37
2021/06/02 12:18:44;;;;;;;23.15;19.83;;;;;;;30.34;59.31;100659.22;5078404;28;65471;-38